Latest Coastal Weather Observations for Barrow Island

IDW60701

Issued at 5:02 am WST Sunday 30 August 2015 (issued every 10 minutes, with the page automatically refreshed every 10 minutes)

About coastal observations | Map of coastal stations | Coastal observations for WA | Marine services | Other Formats
Station Details ID: 005094 Name: BARROW ISLAND AIRPORT Lat: -20.88 Lon: 115.41 Height: 6.4 m
Data from the previous 72 hours. | See also: Recent months at Barrow Island
Date/Time
WST
Temp

°C
Wind Pressure Rain
since 9am
mm
Weather Cloud Vis
km
Sea
Height
m
Swell
Dir
 
Speed
knots
Gust
knots
hPa Trend Height
m
Period
s
Dir
30/05:00am 20.3 S 20 24 1016.8 - 0.0 - - - - - - -
30/04:30am 20.3 SSW 19 23 1016.6 - 0.0 - - - - - - -
30/04:00am 20.4 S 20 24 1016.5 - 0.0 - - - - - - -
30/03:30am 20.5 SSW 19 23 1016.5 - 0.0 - - - - - - -
30/03:00am 20.6 SSW 18 23 1016.4 - 0.0 - - - - - - -
30/02:30am 21.0 SSW 16 20 1016.5 - 0.0 - - - - - - -
30/02:00am 21.2 SSW 16 20 1016.7 - 0.0 - - - - - - -
30/01:30am 21.2 SSW 17 21 1016.7 - 0.0 - - - - - - -
30/01:00am 21.2 SSW 18 21 1016.8 - 0.0 - - - - - - -
30/12:30am 21.6 SSW 18 22 1017.1 - 0.0 - - - - - - -
30/12:00am 21.4 SW 18 22 1017.1 - 0.0 - - - - - - -
 
Date/Time
WST
Temp

°C
Wind Pressure Rain
since 9am
mm
Weather Cloud Vis
km
Sea
Height
m
Swell
Dir
 
Speed
knots
Gust
knots
hPa Trend Height
m
Period
s
Dir
29/11:30pm 21.7 SSW 19 22 1017.1 - 0.0 - - - - - - -
29/11:00pm 22.0 SW 19 22 1017.1 - 0.0 - - - - - - -
29/10:30pm 22.0 SW 17 21 1017.3 - 0.0 - - - - - - -
29/10:00pm 21.7 WSW 17 21 1017.3 - 0.0 - - - - - - -
29/09:30pm 21.6 WSW 16 19 1017.3 - 0.0 - - - - - - -
29/09:00pm 21.3 WSW 15 18 1017.0 - 0.0 - - - - - - -
29/08:30pm 21.2 WSW 15 18 1016.8 - 0.0 - - - - - - -
29/08:00pm 21.1 W 14 17 1016.7 - 0.0 - - - - - - -
29/07:30pm 21.0 W 13 17 1016.2 - 0.0 - - - - - - -
29/07:00pm 21.1 W 13 16 1016.0 - 0.0 - - - - - - -
29/06:30pm 21.3 W 14 16 1015.8 - 0.0 - - - - - - -
29/06:00pm 21.9 W 12 16 1015.5 - 0.0 - - - - - - -
29/05:30pm 22.6 W 15 18 1015.2 - 0.0 - - - - - - -
29/05:00pm 23.2 W 16 19 1015.0 - 0.0 - - - - - - -
29/04:30pm 23.7 W 15 19 1014.9 - 0.0 - - - - - - -
29/04:00pm 23.9 W 15 18 1015.0 - 0.0 - - - - - - -
29/03:30pm 24.4 W 13 17 1015.0 - 0.0 - - - - - - -
29/03:00pm 23.9 W 12 17 1015.3 - 0.0 - - - - - - -
29/02:30pm 24.7 WSW 12 17 1015.5 - 0.0 - - - - - - -
29/02:00pm 23.9 SW 11 15 1015.9 - 0.0 - - - - - - -
29/01:30pm 23.6 SW 12 16 1016.2 - 0.0 - - - - - - -
29/01:00pm 23.5 SSW 12 15 1016.5 - 0.0 - - - - - - -
29/12:30pm 23.0 SSW 12 15 1017.0 - 0.0 - - - - - - -
29/12:00pm 23.0 SSW 12 15 1017.4 - 0.0 - - - - - - -
29/11:30am 22.8 S 10 13 1017.7 - 0.0 - - - - - - -
29/11:00am 22.7 S 11 13 1018.0 - 0.0 - - - - - - -
29/10:30am 22.5 S 11 13 1018.3 - 0.0 - - - - - - -
29/10:00am 22.0 S 12 16 1018.3 - 0.0 - - - - - - -
29/09:30am 21.6 S 13 15 1018.4 - 0.0 - - - - - - -
29/09:00am 21.4 S 14 16 1018.3 - 0.0 - - - - - - -
29/08:30am 21.0 S 14 17 1018.0 - 0.0 - - - - - - -
29/08:00am 20.6 S 15 18 1017.7 - 0.0 - - - - - - -
29/07:30am 20.4 S 15 18 1017.3 - 0.0 - - - - - - -
29/07:00am 20.0 S 14 16 1016.9 - 0.0 - - - - - - -
29/06:30am 19.8 S 15 18 1016.6 - 0.0 - - - - - - -
29/06:00am 19.9 S 15 17 1016.5 - 0.0 - - - - - - -
29/05:30am 19.9 S 16 17 1016.2 - 0.0 - - - - - - -
29/05:00am 20.1 S 16 18 1016.0 - 0.0 - - - - - - -
29/04:30am 20.2 S 15 19 1015.9 - 0.0 - - - - - - -
29/04:00am 20.6 S 17 19 1015.9 - 0.0 - - - - - - -
29/03:30am 21.1 SW 14 17 1015.8 - 0.0 - - - - - - -
29/03:00am 20.0 WSW 9 12 1016.1 - 0.0 - - - - - - -
29/02:30am 20.5 WSW 10 13 1016.3 - 0.0 - - - - - - -
29/02:00am 19.5 WSW 9 10 1016.5 - 0.0 - - - - - - -
29/01:30am 19.5 W 9 11 1016.8 - 0.0 - - - - - - -
29/01:00am 19.1 W 8 9 1016.9 - 0.0 - - - - - - -
29/12:30am 18.5 W 7 8 1017.2 - 0.0 - - - - - - -
29/12:00am 18.2 W 8 8 1017.3 - 0.0 - - - - - - -
 
Date/Time
WST
Temp

°C
Wind Pressure Rain
since 9am
mm
Weather Cloud Vis
km
Sea
Height
m
Swell
Dir
 
Speed
knots
Gust
knots
hPa Trend Height
m
Period
s
Dir
28/11:30pm 17.8 W 8 9 1017.4 - 0.0 - - - - - - -
28/11:00pm 18.3 WNW 9 10 1017.4 - 0.0 - - - - - - -
28/10:30pm 18.4 WNW 6 7 1017.5 - 0.0 - - - - - - -
28/10:00pm 18.7 W 7 7 1017.7 - 0.0 - - - - - - -
28/09:30pm 18.8 WNW 6 7 1017.6 - 0.0 - - - - - - -
28/09:00pm 18.5 W 6 7 1017.4 - 0.0 - - - - - - -
28/08:30pm 18.7 W 6 7 1017.1 - 0.0 - - - - - - -
28/08:00pm 19.4 WNW 6 7 1016.7 - 0.0 - - - - - - -
28/07:30pm 20.4 W 8 11 1016.2 - 0.0 - - - - - - -
28/07:00pm 20.5 W 7 9 1015.9 - 0.0 - - - - - - -
28/06:30pm 21.2 W 8 10 1015.6 - 0.0 - - - - - - -
28/06:00pm 22.1 W 10 13 1015.2 - 0.0 - - - - - - -
28/05:30pm 22.9 W 10 13 1015.0 - 0.0 - - - - - - -
28/05:00pm 22.7 W 12 16 1014.8 - 0.0 - - - - - - -
28/04:30pm 24.5 WSW 12 17 1014.6 - 0.0 - - - - - - -
28/04:00pm 23.0 SE 6 7 1014.6 - 0.0 - - - - - - -
28/03:30pm 22.9 SSE 5 7 1014.7 - 0.0 - - - - - - -
28/03:00pm 22.5 S 8 9 1014.7 - 0.0 - - - - - - -
28/02:30pm 22.9 S 6 8 1014.8 - 0.0 - - - - - - -
28/02:00pm 23.0 SSE 6 8 1015.0 - 0.0 - - - - - - -
28/01:30pm 23.2 S 6 7 1015.4 - 0.0 - - - - - - -
28/01:00pm 22.9 S 6 8 1015.7 - 0.0 - - - - - - -
28/12:30pm 22.5 SE 5 7 1016.0 - 0.0 - - - - - - -
28/12:00pm 22.6 SSE 6 8 1016.3 - 0.0 - - - - - - -
28/11:30am 22.3 SSE 7 8 1016.7 - 0.0 - - - - - - -
28/11:00am 22.9 SSE 7 9 1016.7 - 0.0 - - - - - - -
28/10:30am 22.6 S 8 10 1016.9 - 0.0 - - - - - - -
28/10:00am 22.9 S 7 9 1017.2 - 0.0 - - - - - - -
28/09:30am 22.7 S 7 8 1017.3 - 0.0 - - - - - - -
28/09:00am 22.6 S 7 9 1017.0 - 0.0 - - - - - - -
28/08:30am 22.1 S 9 11 1016.8 - 0.0 - - - - - - -
28/08:00am 21.8 S 9 11 1016.5 - 0.0 - - - - - - -
28/07:30am 20.8 S 10 11 1016.1 - 0.0 - - - - - - -
28/07:00am 18.1 W 5 7 1015.9 - 0.0 - - - - - - -
28/06:30am 17.5 W 6 7 1015.7 - 0.0 - - - - - - -
28/06:00am 17.3 W 6 7 1015.4 - 0.0 - - - - - - -
28/05:30am 17.3 W 7 8 1015.2 - 0.0 - - - - - - -
28/05:00am 17.4 W 7 8 1014.9 - 0.0 - - - - - - -
28/04:30am 17.6 WNW 7 8 1014.8 - 0.0 - - - - - - -
28/04:00am 17.4 WNW 5 6 1014.9 - 0.0 - - - - - - -
28/03:30am 17.1 W 5 7 1014.9 - 0.0 - - - - - - -
28/03:00am 17.3 W 7 7 1015.0 - 0.0 - - - - - - -
28/02:30am 17.4 WNW 7 8 1015.2 - 0.0 - - - - - - -
28/02:00am 17.7 W 7 8 1015.4 - 0.0 - - - - - - -
28/01:30am 18.1 W 6 7 1015.7 - 0.0 - - - - - - -
28/01:00am 18.3 W 5 6 1015.9 - 0.0 - - - - - - -
28/12:30am 18.8 W 5 6 1016.1 - 0.0 - - - - - - -
28/12:00am 18.7 W 4 5 1016.2 - 0.0 - - - - - - -
 
Date/Time
WST
Temp

°C
Wind Pressure Rain
since 9am
mm
Weather Cloud Vis
km
Sea
Height
m
Swell
Dir
 
Speed
knots
Gust
knots
hPa Trend Height
m
Period
s
Dir
27/11:30pm 18.9 W 4 4 1016.4 - 0.0 - - - - - - -
27/11:00pm 19.4 SSW 2 3 1016.4 - 0.0 - - - - - - -
27/10:30pm 19.1 SW 3 4 1016.5 - 0.0 - - - - - - -
27/10:00pm 19.5 CALM 0 0 1016.7 - 0.0 - - - - - - -
27/09:30pm 20.4 SW 1 3 1016.8 - 0.0 - - - - - - -
27/09:00pm 21.4 S 4 5 1016.8 - 0.0 - - - - - - -
27/08:30pm 21.4 S 5 5 1016.7 - 0.0 - - - - - - -
27/08:00pm 21.6 S 5 5 1016.5 - 0.0 - - - - - - -
27/07:30pm 21.8 S 6 7 1016.3 - 0.0 - - - - - - -
27/07:00pm 21.8 SSW 4 6 1015.9 - 0.0 - - - - - - -
27/06:30pm 22.1 SSW 6 7 1015.6 - 0.0 - - - - - - -
27/06:00pm 22.4 S 7 8 1015.3 - 0.0 - - - - - - -
27/05:30pm 22.8 S 8 9 1015.1 - 0.0 - - - - - - -
27/05:00pm 23.0 S 8 10 1015.0 - 0.0 - - - - - - -
27/04:30pm 23.4 S 7 9 1014.8 - 0.0 - - - - - - -
27/04:00pm 24.1 S 7 8 1014.8 - 0.0 - - - - - - -
27/03:30pm 24.1 ESE 4 6 1014.9 - 0.0 - - - - - - -
27/03:00pm 24.1 E 5 7 1014.8 - 0.0 - - - - - - -
27/02:30pm 24.2 E 8 10 1015.0 - 0.0 - - - - - - -
27/02:00pm 24.4 E 8 10 1015.1 - 0.0 - - - - - - -
27/01:30pm 24.8 E 7 9 1015.5 - 0.0 - - - - - - -
27/01:00pm 24.8 E 7 9 1015.8 - 0.0 - - - - - - -
27/12:30pm 23.5 ESE 8 10 1016.2 - 0.0 - - - - - - -
27/12:00pm 24.4 ESE 8 10 1016.5 - 0.0 - - - - - - -
27/11:30am 24.5 E 9 11 1016.9 - 0.0 - - - - - - -
27/11:00am 23.8 E 8 10 1017.3 - 0.0 - - - - - - -
27/10:30am 23.7 E 9 11 1017.6 - 0.0 - - - - - - -
27/10:00am 22.8 ESE 9 11 1017.6 - 0.0 - - - - - - -
27/09:30am 22.3 ESE 10 11 1017.5 - 0.0 - - - - - - -
27/09:00am 22.5 ESE 10 12 1017.2 - 0.0 - - - - - - -
27/08:30am 22.1 ESE 10 11 1016.8 - 0.0 - - - - - - -
27/08:00am 21.6 ESE 9 10 1016.6 - 0.0 - - - - - - -
27/07:30am 21.1 S 6 8 1016.2 - 0.0 - - - - - - -
27/07:00am 17.7 SW 5 6 1015.7 - 0.0 - - - - - - -
27/06:30am 16.9 WSW 5 5 1015.2 - 0.0 - - - - - - -
27/06:00am 17.1 WSW 5 5 1015.0 - 0.0 - - - - - - -
27/05:30am 17.1 WSW 5 6 1014.7 - 0.0 - - - - - - -

Other Formats:

Comma delimited format used in spreadsheet applications
http://www.bom.gov.au/fwo/IDW60701/IDW60701.95304.axf

JavaScript Object Notation format (JSON) in row-major order
http://www.bom.gov.au/fwo/IDW60701/IDW60701.95304.json